sensor_id;sensor_type;location;lat;lon;timestamp;P1;durP1;ratioP1;P2;durP2;ratioP2
74369;SDS011;71062;44.520;11.342;2024-03-23T00:55:13;9.07;;;3.90;;
74369;SDS011;71062;44.520;11.342;2024-03-23T00:57:39;11.68;;;3.92;;
74369;SDS011;71062;44.520;11.342;2024-03-23T01:00:04;7.07;;;4.05;;
74369;SDS011;71062;44.520;11.342;2024-03-23T01:02:34;8.40;;;4.03;;
74369;SDS011;71062;44.520;11.342;2024-03-23T01:04:59;10.98;;;4.10;;
74369;SDS011;71062;44.520;11.342;2024-03-23T01:07:24;9.33;;;4.27;;
74369;SDS011;71062;44.520;11.342;2024-03-23T01:09:50;6.10;;;3.93;;
74369;SDS011;71062;44.520;11.342;2024-03-23T01:12:17;9.45;;;4.00;;
74369;SDS011;71062;44.520;11.342;2024-03-23T01:14:42;8.05;;;4.53;;
74369;SDS011;71062;44.520;11.342;2024-03-23T01:17:08;11.53;;;4.27;;
74369;SDS011;71062;44.520;11.342;2024-03-23T01:19:33;7.43;;;3.65;;
74369;SDS011;71062;44.520;11.342;2024-03-23T01:21:58;7.53;;;4.07;;
74369;SDS011;71062;44.520;11.342;2024-03-23T01:24:24;6.63;;;3.70;;
74369;SDS011;71062;44.520;11.342;2024-03-23T01:26:49;6.72;;;3.75;;
74369;SDS011;71062;44.520;11.342;2024-03-23T01:29:15;6.72;;;3.58;;
74369;SDS011;71062;44.520;11.342;2024-03-23T01:31:40;8.43;;;4.30;;
74369;SDS011;71062;44.520;11.342;2024-03-23T01:34:05;6.28;;;3.20;;
74369;SDS011;71062;44.520;11.342;2024-03-23T01:36:31;7.67;;;3.07;;
74369;SDS011;71062;44.520;11.342;2024-03-23T01:38:56;7.88;;;3.33;;
74369;SDS011;71062;44.520;11.342;2024-03-23T01:41:23;5.72;;;2.60;;
74369;SDS011;71062;44.520;11.342;2024-03-23T01:46:17;7.63;;;2.97;;
74369;SDS011;71062;44.520;11.342;2024-03-23T01:48:42;5.70;;;2.30;;
74369;SDS011;71062;44.520;11.342;2024-03-23T01:51:08;5.20;;;2.58;;
74369;SDS011;71062;44.520;11.342;2024-03-23T01:53:34;5.72;;;2.80;;
74369;SDS011;71062;44.520;11.342;2024-03-23T01:56:00;6.30;;;3.20;;
74369;SDS011;71062;44.520;11.342;2024-03-23T01:58:27;5.63;;;2.72;;
74369;SDS011;71062;44.520;11.342;2024-03-23T02:00:53;4.90;;;2.75;;
74369;SDS011;71062;44.520;11.342;2024-03-23T02:03:22;5.27;;;2.90;;
74369;SDS011;71062;44.520;11.342;2024-03-23T02:05:48;5.13;;;2.67;;
74369;SDS011;71062;44.520;11.342;2024-03-23T02:08:16;4.03;;;2.50;;
74369;SDS011;71062;44.520;11.342;2024-03-23T02:10:42;5.38;;;2.65;;
74369;SDS011;71062;44.520;11.342;2024-03-23T02:13:07;7.68;;;3.00;;
74369;SDS011;71062;44.520;11.342;2024-03-23T02:15:33;5.40;;;2.80;;
74369;SDS011;71062;44.520;11.342;2024-03-23T02:17:59;6.07;;;3.17;;
74369;SDS011;71062;44.520;11.342;2024-03-23T02:20:25;5.63;;;3.03;;
74369;SDS011;71062;44.520;11.342;2024-03-23T02:22:51;4.15;;;2.53;;
74369;SDS011;71062;44.520;11.342;2024-03-23T02:25:16;6.07;;;3.15;;
74369;SDS011;71062;44.520;11.342;2024-03-23T02:27:42;6.20;;;3.17;;
74369;SDS011;71062;44.520;11.342;2024-03-23T02:30:08;6.05;;;3.30;;
74369;SDS011;71062;44.520;11.342;2024-03-23T02:32:33;4.72;;;3.20;;
74369;SDS011;71062;44.520;11.342;2024-03-23T02:34:58;5.87;;;3.57;;
74369;SDS011;71062;44.520;11.342;2024-03-23T02:37:24;5.75;;;3.00;;
74369;SDS011;71062;44.520;11.342;2024-03-23T02:39:49;6.30;;;3.50;;
74369;SDS011;71062;44.520;11.342;2024-03-23T02:42:15;5.32;;;3.05;;
74369;SDS011;71062;44.520;11.342;2024-03-23T02:44:43;5.82;;;3.20;;
74369;SDS011;71062;44.520;11.342;2024-03-23T02:47:08;9.38;;;3.55;;
74369;SDS011;71062;44.520;11.342;2024-03-23T02:49:34;7.78;;;3.85;;
74369;SDS011;71062;44.520;11.342;2024-03-23T02:52:00;6.97;;;3.47;;
74369;SDS011;71062;44.520;11.342;2024-03-23T02:54:25;6.55;;;3.35;;
74369;SDS011;71062;44.520;11.342;2024-03-23T02:56:51;11.55;;;4.05;;
74369;SDS011;71062;44.520;11.342;2024-03-23T02:59:16;8.20;;;3.90;;
74369;SDS011;71062;44.520;11.342;2024-03-23T03:01:42;9.77;;;4.00;;
74369;SDS011;71062;44.520;11.342;2024-03-23T03:04:07;7.30;;;4.07;;
74369;SDS011;71062;44.520;11.342;2024-03-23T03:06:33;7.13;;;4.07;;
74369;SDS011;71062;44.520;11.342;2024-03-23T03:08:58;8.93;;;4.10;;
74369;SDS011;71062;44.520;11.342;2024-03-23T03:11:24;7.50;;;4.30;;
74369;SDS011;71062;44.520;11.342;2024-03-23T03:13:49;9.40;;;4.15;;
74369;SDS011;71062;44.520;11.342;2024-03-23T03:16:15;9.40;;;4.18;;
74369;SDS011;71062;44.520;11.342;2024-03-23T03:18:40;9.37;;;4.60;;
74369;SDS011;71062;44.520;11.342;2024-03-23T03:21:06;11.90;;;4.65;;
74369;SDS011;71062;44.520;11.342;2024-03-23T03:23:39;8.05;;;4.32;;
74369;SDS011;71062;44.520;11.342;2024-03-23T03:26:05;7.80;;;3.92;;
74369;SDS011;71062;44.520;11.342;2024-03-23T03:28:31;5.90;;;3.72;;
74369;SDS011;71062;44.520;11.342;2024-03-23T03:30:58;6.50;;;3.67;;
74369;SDS011;71062;44.520;11.342;2024-03-23T03:33:23;10.90;;;3.53;;
74369;SDS011;71062;44.520;11.342;2024-03-23T03:35:49;8.07;;;3.50;;
74369;SDS011;71062;44.520;11.342;2024-03-23T03:38:15;7.53;;;3.40;;
74369;SDS011;71062;44.520;11.342;2024-03-23T03:40:41;6.25;;;3.30;;
74369;SDS011;71062;44.520;11.342;2024-03-23T03:43:07;8.20;;;3.88;;
74369;SDS011;71062;44.520;11.342;2024-03-23T03:45:32;6.15;;;2.78;;
74369;SDS011;71062;44.520;11.342;2024-03-23T03:47:57;6.63;;;3.60;;
74369;SDS011;71062;44.520;11.342;2024-03-23T03:50:24;6.85;;;3.22;;
74369;SDS011;71062;44.520;11.342;2024-03-23T03:52:50;6.60;;;3.38;;
74369;SDS011;71062;44.520;11.342;2024-03-23T03:55:16;7.78;;;3.97;;
74369;SDS011;71062;44.520;11.342;2024-03-23T03:57:41;7.20;;;3.15;;
74369;SDS011;71062;44.520;11.342;2024-03-23T04:00:07;5.90;;;3.60;;
74369;SDS011;71062;44.520;11.342;2024-03-23T04:02:37;6.30;;;3.22;;
74369;SDS011;71062;44.520;11.342;2024-03-23T04:05:02;6.32;;;3.20;;
74369;SDS011;71062;44.520;11.342;2024-03-23T04:07:28;5.40;;;2.80;;
74369;SDS011;71062;44.520;11.342;2024-03-23T04:09:53;5.55;;;3.10;;
74369;SDS011;71062;44.520;11.342;2024-03-23T04:12:19;6.93;;;3.45;;
74369;SDS011;71062;44.520;11.342;2024-03-23T04:14:45;7.10;;;3.22;;
74369;SDS011;71062;44.520;11.342;2024-03-23T04:17:11;4.93;;;3.05;;
74369;SDS011;71062;44.520;11.342;2024-03-23T04:19:36;5.72;;;3.08;;
74369;SDS011;71062;44.520;11.342;2024-03-23T04:22:02;5.20;;;2.95;;
74369;SDS011;71062;44.520;11.342;2024-03-23T04:24:28;5.22;;;3.28;;
74369;SDS011;71062;44.520;11.342;2024-03-23T04:26:54;6.10;;;3.33;;
74369;SDS011;71062;44.520;11.342;2024-03-23T04:29:20;5.55;;;3.15;;
74369;SDS011;71062;44.520;11.342;2024-03-23T04:31:45;5.97;;;3.50;;
74369;SDS011;71062;44.520;11.342;2024-03-23T04:34:11;4.72;;;2.85;;
74369;SDS011;71062;44.520;11.342;2024-03-23T04:36:36;5.32;;;3.28;;
74369;SDS011;71062;44.520;11.342;2024-03-23T04:39:02;6.38;;;2.75;;
74369;SDS011;71062;44.520;11.342;2024-03-23T04:41:27;5.82;;;3.25;;
74369;SDS011;71062;44.520;11.342;2024-03-23T04:43:53;5.60;;;2.95;;
74369;SDS011;71062;44.520;11.342;2024-03-23T04:46:18;7.40;;;3.42;;
74369;SDS011;71062;44.520;11.342;2024-03-23T04:48:44;6.15;;;3.30;;
74369;SDS011;71062;44.520;11.342;2024-03-23T04:51:10;6.53;;;3.50;;
74369;SDS011;71062;44.520;11.342;2024-03-23T04:53:37;6.30;;;4.13;;
74369;SDS011;71062;44.520;11.342;2024-03-23T04:56:03;6.65;;;3.38;;
74369;SDS011;71062;44.520;11.342;2024-03-23T04:58:30;9.20;;;3.70;;
74369;SDS011;71062;44.520;11.342;2024-03-23T05:00:55;5.55;;;3.15;;
74369;SDS011;71062;44.520;11.342;2024-03-23T05:03:21;7.63;;;3.20;;
74369;SDS011;71062;44.520;11.342;2024-03-23T05:05:47;7.97;;;3.53;;
74369;SDS011;71062;44.520;11.342;2024-03-23T05:08:13;5.85;;;2.78;;
74369;SDS011;71062;44.520;11.342;2024-03-23T05:10:39;5.35;;;3.17;;
74369;SDS011;71062;44.520;11.342;2024-03-23T05:13:04;6.68;;;3.38;;
74369;SDS011;71062;44.520;11.342;2024-03-23T05:15:33;6.80;;;3.50;;
74369;SDS011;71062;44.520;11.342;2024-03-23T05:17:58;6.10;;;2.97;;
74369;SDS011;71062;44.520;11.342;2024-03-23T05:20:24;6.18;;;3.20;;
74369;SDS011;71062;44.520;11.342;2024-03-23T05:22:49;7.65;;;3.15;;
74369;SDS011;71062;44.520;11.342;2024-03-23T05:25:15;5.72;;;2.97;;
74369;SDS011;71062;44.520;11.342;2024-03-23T05:27:41;6.28;;;3.17;;
74369;SDS011;71062;44.520;11.342;2024-03-23T05:30:07;6.00;;;3.20;;
74369;SDS011;71062;44.520;11.342;2024-03-23T05:32:32;6.32;;;3.50;;
74369;SDS011;71062;44.520;11.342;2024-03-23T05:34:58;8.27;;;3.88;;
74369;SDS011;71062;44.520;11.342;2024-03-23T05:37:24;8.10;;;3.75;;
74369;SDS011;71062;44.520;11.342;2024-03-23T05:39:49;6.45;;;3.90;;
74369;SDS011;71062;44.520;11.342;2024-03-23T05:42:16;7.93;;;3.70;;
74369;SDS011;71062;44.520;11.342;2024-03-23T05:44:42;8.52;;;3.28;;
74369;SDS011;71062;44.520;11.342;2024-03-23T05:47:08;6.13;;;3.65;;
74369;SDS011;71062;44.520;11.342;2024-03-23T05:49:33;7.45;;;3.70;;
74369;SDS011;71062;44.520;11.342;2024-03-23T05:51:59;6.18;;;3.33;;
74369;SDS011;71062;44.520;11.342;2024-03-23T05:54:27;3.75;;;2.42;;
74369;SDS011;71062;44.520;11.342;2024-03-23T05:56:55;4.95;;;2.60;;
74369;SDS011;71062;44.520;11.342;2024-03-23T05:59:21;8.48;;;2.95;;
74369;SDS011;71062;44.520;11.342;2024-03-23T06:01:47;6.07;;;2.75;;
74369;SDS011;71062;44.520;11.342;2024-03-23T06:04:12;5.97;;;2.90;;
74369;SDS011;71062;44.520;11.342;2024-03-23T06:06:39;10.00;;;2.47;;
74369;SDS011;71062;44.520;11.342;2024-03-23T06:09:04;5.85;;;2.75;;
74369;SDS011;71062;44.520;11.342;2024-03-23T06:11:30;5.25;;;2.97;;
74369;SDS011;71062;44.520;11.342;2024-03-23T06:13:56;5.40;;;2.78;;
74369;SDS011;71062;44.520;11.342;2024-03-23T06:16:21;4.75;;;2.38;;
74369;SDS011;71062;44.520;11.342;2024-03-23T06:18:52;5.22;;;2.75;;
74369;SDS011;71062;44.520;11.342;2024-03-23T06:21:18;4.43;;;2.83;;
74369;SDS011;71062;44.520;11.342;2024-03-23T06:23:44;4.75;;;2.58;;
74369;SDS011;71062;44.520;11.342;2024-03-23T06:26:17;7.10;;;3.33;;
74369;SDS011;71062;44.520;11.342;2024-03-23T06:28:42;4.53;;;2.67;;
74369;SDS011;71062;44.520;11.342;2024-03-23T06:31:11;5.38;;;3.20;;
74369;SDS011;71062;44.520;11.342;2024-03-23T06:33:36;6.90;;;2.88;;
74369;SDS011;71062;44.520;11.342;2024-03-23T06:36:02;4.38;;;2.25;;
74369;SDS011;71062;44.520;11.342;2024-03-23T06:38:28;4.93;;;2.42;;
74369;SDS011;71062;44.520;11.342;2024-03-23T06:40:54;5.63;;;2.83;;
74369;SDS011;71062;44.520;11.342;2024-03-23T06:43:19;4.90;;;2.65;;
74369;SDS011;71062;44.520;11.342;2024-03-23T06:45:52;4.55;;;2.60;;
74369;SDS011;71062;44.520;11.342;2024-03-23T06:48:17;5.88;;;2.65;;
74369;SDS011;71062;44.520;11.342;2024-03-23T06:50:42;4.90;;;2.40;;
74369;SDS011;71062;44.520;11.342;2024-03-23T06:53:08;6.60;;;2.00;;
74369;SDS011;71062;44.520;11.342;2024-03-23T06:55:34;4.28;;;2.33;;
74369;SDS011;71062;44.520;11.342;2024-03-23T06:57:59;3.83;;;2.20;;
74369;SDS011;71062;44.520;11.342;2024-03-23T07:00:25;5.50;;;1.73;;
74369;SDS011;71062;44.520;11.342;2024-03-23T07:02:50;3.03;;;1.85;;
74369;SDS011;71062;44.520;11.342;2024-03-23T07:05:16;4.05;;;2.10;;
74369;SDS011;71062;44.520;11.342;2024-03-23T07:07:41;3.63;;;1.92;;
74369;SDS011;71062;44.520;11.342;2024-03-23T07:10:07;5.68;;;2.03;;
74369;SDS011;71062;44.520;11.342;2024-03-23T07:12:33;3.47;;;2.15;;
74369;SDS011;71062;44.520;11.342;2024-03-23T07:14:58;3.58;;;1.90;;
74369;SDS011;71062;44.520;11.342;2024-03-23T07:17:23;4.13;;;1.92;;
74369;SDS011;71062;44.520;11.342;2024-03-23T07:19:49;2.93;;;1.60;;
74369;SDS011;71062;44.520;11.342;2024-03-23T07:22:15;3.92;;;2.22;;
74369;SDS011;71062;44.520;11.342;2024-03-23T07:24:40;3.90;;;2.20;;
74369;SDS011;71062;44.520;11.342;2024-03-23T07:27:06;4.05;;;2.05;;
74369;SDS011;71062;44.520;11.342;2024-03-23T07:29:35;3.47;;;1.70;;
74369;SDS011;71062;44.520;11.342;2024-03-23T07:32:00;3.70;;;1.73;;
74369;SDS011;71062;44.520;11.342;2024-03-23T07:34:26;2.95;;;1.38;;
74369;SDS011;71062;44.520;11.342;2024-03-23T07:36:51;2.33;;;1.17;;
74369;SDS011;71062;44.520;11.342;2024-03-23T07:39:17;2.42;;;1.45;;
74369;SDS011;71062;44.520;11.342;2024-03-23T07:41:44;3.83;;;2.17;;
74369;SDS011;71062;44.520;11.342;2024-03-23T07:44:10;4.18;;;1.95;;
74369;SDS011;71062;44.520;11.342;2024-03-23T07:46:36;4.18;;;2.22;;
74369;SDS011;71062;44.520;11.342;2024-03-23T07:49:01;3.47;;;2.15;;
74369;SDS011;71062;44.520;11.342;2024-03-23T07:51:26;2.72;;;1.83;;
74369;SDS011;71062;44.520;11.342;2024-03-23T07:53:52;2.80;;;1.77;;
74369;SDS011;71062;44.520;11.342;2024-03-23T07:56:19;3.50;;;1.80;;
74369;SDS011;71062;44.520;11.342;2024-03-23T07:58:44;4.20;;;2.28;;
74369;SDS011;71062;44.520;11.342;2024-03-23T08:01:16;4.72;;;2.10;;
74369;SDS011;71062;44.520;11.342;2024-03-23T08:03:43;3.28;;;1.92;;
74369;SDS011;71062;44.520;11.342;2024-03-23T08:08:40;4.65;;;2.33;;
74369;SDS011;71062;44.520;11.342;2024-03-23T08:11:06;5.15;;;2.63;;
74369;SDS011;71062;44.520;11.342;2024-03-23T08:13:31;5.60;;;2.53;;
74369;SDS011;71062;44.520;11.342;2024-03-23T08:15:57;4.55;;;1.83;;
74369;SDS011;71062;44.520;11.342;2024-03-23T08:18:23;5.53;;;2.60;;
74369;SDS011;71062;44.520;11.342;2024-03-23T08:20:55;3.95;;;1.88;;
74369;SDS011;71062;44.520;11.342;2024-03-23T08:23:20;4.72;;;2.42;;
74369;SDS011;71062;44.520;11.342;2024-03-23T08:25:46;4.63;;;2.45;;
74369;SDS011;71062;44.520;11.342;2024-03-23T08:28:11;5.43;;;2.33;;
74369;SDS011;71062;44.520;11.342;2024-03-23T08:30:36;3.50;;;2.07;;
74369;SDS011;71062;44.520;11.342;2024-03-23T08:33:02;2.90;;;1.48;;
74369;SDS011;71062;44.520;11.342;2024-03-23T08:35:27;2.78;;;1.48;;
74369;SDS011;71062;44.520;11.342;2024-03-23T08:37:53;5.05;;;2.22;;
74369;SDS011;71062;44.520;11.342;2024-03-23T08:40:18;4.03;;;1.85;;
74369;SDS011;71062;44.520;11.342;2024-03-23T08:42:44;4.40;;;1.58;;
74369;SDS011;71062;44.520;11.342;2024-03-23T08:45:09;3.42;;;1.83;;
74369;SDS011;71062;44.520;11.342;2024-03-23T08:47:35;3.70;;;2.00;;
74369;SDS011;71062;44.520;11.342;2024-03-23T08:50:01;5.80;;;2.38;;
74369;SDS011;71062;44.520;11.342;2024-03-23T08:52:26;3.83;;;2.30;;
74369;SDS011;71062;44.520;11.342;2024-03-23T08:54:54;3.45;;;2.10;;
74369;SDS011;71062;44.520;11.342;2024-03-23T08:57:21;8.38;;;1.98;;
74369;SDS011;71062;44.520;11.342;2024-03-23T08:59:47;4.80;;;1.98;;
74369;SDS011;71062;44.520;11.342;2024-03-23T09:02:12;2.90;;;1.65;;
74369;SDS011;71062;44.520;11.342;2024-03-23T09:04:37;3.25;;;2.05;;
74369;SDS011;71062;44.520;11.342;2024-03-23T09:07:03;3.35;;;2.05;;
74369;SDS011;71062;44.520;11.342;2024-03-23T09:09:29;3.45;;;1.80;;
74369;SDS011;71062;44.520;11.342;2024-03-23T09:11:55;4.35;;;2.17;;
74369;SDS011;71062;44.520;11.342;2024-03-23T09:14:21;4.10;;;2.33;;
74369;SDS011;71062;44.520;11.342;2024-03-23T09:16:49;3.78;;;2.40;;
74369;SDS011;71062;44.520;11.342;2024-03-23T09:19:15;3.35;;;1.98;;
74369;SDS011;71062;44.520;11.342;2024-03-23T09:21:40;7.57;;;1.90;;
74369;SDS011;71062;44.520;11.342;2024-03-23T09:24:06;5.25;;;2.50;;
74369;SDS011;71062;44.520;11.342;2024-03-23T09:26:31;3.22;;;1.90;;
74369;SDS011;71062;44.520;11.342;2024-03-23T09:28:57;4.18;;;2.50;;
74369;SDS011;71062;44.520;11.342;2024-03-23T09:31:22;7.65;;;1.80;;
74369;SDS011;71062;44.520;11.342;2024-03-23T09:33:48;5.82;;;2.40;;
74369;SDS011;71062;44.520;11.342;2024-03-23T09:36:14;3.90;;;2.30;;
74369;SDS011;71062;44.520;11.342;2024-03-23T09:38:40;4.40;;;2.97;;
74369;SDS011;71062;44.520;11.342;2024-03-23T09:41:09;3.60;;;2.10;;
74369;SDS011;71062;44.520;11.342;2024-03-23T09:43:35;4.70;;;2.47;;
74369;SDS011;71062;44.520;11.342;2024-03-23T09:46:01;4.10;;;2.60;;
74369;SDS011;71062;44.520;11.342;2024-03-23T09:48:27;4.65;;;2.67;;
74369;SDS011;71062;44.520;11.342;2024-03-23T09:50:53;3.90;;;2.08;;
74369;SDS011;71062;44.520;11.342;2024-03-23T09:53:18;5.43;;;2.53;;
74369;SDS011;71062;44.520;11.342;2024-03-23T09:55:44;2.92;;;1.75;;
74369;SDS011;71062;44.520;11.342;2024-03-23T09:58:13;4.75;;;2.30;;
74369;SDS011;71062;44.520;11.342;2024-03-23T10:00:38;4.75;;;2.38;;
74369;SDS011;71062;44.520;11.342;2024-03-23T10:03:04;5.20;;;2.63;;
74369;SDS011;71062;44.520;11.342;2024-03-23T10:05:32;4.10;;;2.35;;
74369;SDS011;71062;44.520;11.342;2024-03-23T10:08:00;3.50;;;2.55;;
74369;SDS011;71062;44.520;11.342;2024-03-23T10:10:25;3.00;;;2.03;;
74369;SDS011;71062;44.520;11.342;2024-03-23T10:12:51;2.53;;;1.48;;
74369;SDS011;71062;44.520;11.342;2024-03-23T10:15:20;3.75;;;1.42;;
74369;SDS011;71062;44.520;11.342;2024-03-23T10:17:46;3.58;;;1.98;;
74369;SDS011;71062;44.520;11.342;2024-03-23T10:20:12;4.88;;;2.17;;
74369;SDS011;71062;44.520;11.342;2024-03-23T10:22:37;5.07;;;2.00;;
74369;SDS011;71062;44.520;11.342;2024-03-23T10:25:07;2.80;;;1.90;;
74369;SDS011;71062;44.520;11.342;2024-03-23T10:27:33;3.42;;;2.10;;
74369;SDS011;71062;44.520;11.342;2024-03-23T10:30:07;4.78;;;1.98;;
74369;SDS011;71062;44.520;11.342;2024-03-23T10:32:34;3.20;;;1.73;;
74369;SDS011;71062;44.520;11.342;2024-03-23T10:35:17;2.67;;;1.73;;
74369;SDS011;71062;44.520;11.342;2024-03-23T10:37:49;3.35;;;1.75;;
74369;SDS011;71062;44.520;11.342;2024-03-23T10:40:15;4.75;;;2.25;;
74369;SDS011;71062;44.520;11.342;2024-03-23T10:42:41;5.40;;;2.42;;
74369;SDS011;71062;44.520;11.342;2024-03-23T10:45:07;3.08;;;1.58;;
74369;SDS011;71062;44.520;11.342;2024-03-23T10:47:33;3.33;;;1.77;;
74369;SDS011;71062;44.520;11.342;2024-03-23T10:49:59;3.08;;;1.95;;
74369;SDS011;71062;44.520;11.342;2024-03-23T10:52:25;2.60;;;1.65;;
74369;SDS011;71062;44.520;11.342;2024-03-23T10:54:51;3.08;;;1.75;;
74369;SDS011;71062;44.520;11.342;2024-03-23T10:57:20;3.45;;;2.28;;
74369;SDS011;71062;44.520;11.342;2024-03-23T10:59:46;4.97;;;2.05;;
74369;SDS011;71062;44.520;11.342;2024-03-23T11:02:18;3.22;;;2.10;;
74369;SDS011;71062;44.520;11.342;2024-03-23T11:04:44;4.47;;;2.63;;
74369;SDS011;71062;44.520;11.342;2024-03-23T11:09:50;3.45;;;2.00;;
74369;SDS011;71062;44.520;11.342;2024-03-23T11:12:24;4.78;;;2.50;;
74369;SDS011;71062;44.520;11.342;2024-03-23T11:15:06;4.32;;;2.50;;
74369;SDS011;71062;44.520;11.342;2024-03-23T11:17:40;3.13;;;1.73;;
74369;SDS011;71062;44.520;11.342;2024-03-23T11:20:06;4.55;;;2.60;;
74369;SDS011;71062;44.520;11.342;2024-03-23T11:25:16;6.43;;;2.60;;
74369;SDS011;71062;44.520;11.342;2024-03-23T11:27:42;4.20;;;2.50;;
74369;SDS011;71062;44.520;11.342;2024-03-23T11:30:15;5.60;;;2.53;;
74369;SDS011;71062;44.520;11.342;2024-03-23T11:32:48;6.22;;;2.42;;
74369;SDS011;71062;44.520;11.342;2024-03-23T11:35:30;3.95;;;2.42;;
74369;SDS011;71062;44.520;11.342;2024-03-23T11:38:03;5.65;;;2.53;;
74369;SDS011;71062;44.520;11.342;2024-03-23T11:40:29;4.75;;;2.63;;
74369;SDS011;71062;44.520;11.342;2024-03-23T11:43:01;4.85;;;2.20;;
74369;SDS011;71062;44.520;11.342;2024-03-23T11:45:27;4.53;;;2.88;;
74369;SDS011;71062;44.520;11.342;2024-03-23T11:48:05;4.15;;;2.15;;
74369;SDS011;71062;44.520;11.342;2024-03-23T11:50:31;6.10;;;2.50;;
74369;SDS011;71062;44.520;11.342;2024-03-23T11:55:58;3.92;;;2.72;;
74369;SDS011;71062;44.520;11.342;2024-03-23T11:58:24;3.65;;;2.22;;
74369;SDS011;71062;44.520;11.342;2024-03-23T12:03:19;2.92;;;2.33;;
74369;SDS011;71062;44.520;11.342;2024-03-23T12:05:47;5.60;;;2.97;;
74369;SDS011;71062;44.520;11.342;2024-03-23T12:08:31;4.22;;;2.40;;
74369;SDS011;71062;44.520;11.342;2024-03-23T12:11:07;5.63;;;2.70;;
74369;SDS011;71062;44.520;11.342;2024-03-23T12:13:34;3.92;;;2.58;;
74369;SDS011;71062;44.520;11.342;2024-03-23T12:18:55;4.35;;;2.65;;
74369;SDS011;71062;44.520;11.342;2024-03-23T12:21:30;3.58;;;2.50;;
74369;SDS011;71062;44.520;11.342;2024-03-23T12:23:55;5.00;;;2.85;;
74369;SDS011;71062;44.520;11.342;2024-03-23T12:26:21;2.92;;;2.20;;
74369;SDS011;71062;44.520;11.342;2024-03-23T12:28:48;5.85;;;2.72;;
74369;SDS011;71062;44.520;11.342;2024-03-23T12:31:13;5.63;;;2.53;;
74369;SDS011;71062;44.520;11.342;2024-03-23T12:33:39;3.47;;;2.47;;
74369;SDS011;71062;44.520;11.342;2024-03-23T12:36:04;5.53;;;2.85;;
74369;SDS011;71062;44.520;11.342;2024-03-23T12:38:30;6.43;;;2.85;;
74369;SDS011;71062;44.520;11.342;2024-03-23T12:40:55;3.63;;;2.47;;
74369;SDS011;71062;44.520;11.342;2024-03-23T12:43:21;4.88;;;3.00;;
74369;SDS011;71062;44.520;11.342;2024-03-23T12:45:49;5.10;;;3.30;;
74369;SDS011;71062;44.520;11.342;2024-03-23T12:48:15;4.80;;;2.83;;
74369;SDS011;71062;44.520;11.342;2024-03-23T12:50:40;4.10;;;3.03;;
74369;SDS011;71062;44.520;11.342;2024-03-23T12:53:06;5.30;;;2.95;;
74369;SDS011;71062;44.520;11.342;2024-03-23T12:55:31;4.28;;;2.78;;
74369;SDS011;71062;44.520;11.342;2024-03-23T12:57:57;7.03;;;3.28;;
74369;SDS011;71062;44.520;11.342;2024-03-23T13:00:22;6.13;;;3.28;;
74369;SDS011;71062;44.520;11.342;2024-03-23T13:02:47;5.82;;;2.33;;
74369;SDS011;71062;44.520;11.342;2024-03-23T13:05:13;3.80;;;2.30;;
74369;SDS011;71062;44.520;11.342;2024-03-23T13:07:39;5.28;;;2.53;;
74369;SDS011;71062;44.520;11.342;2024-03-23T13:10:04;4.10;;;2.05;;
74369;SDS011;71062;44.520;11.342;2024-03-23T13:12:30;2.28;;;1.83;;
74369;SDS011;71062;44.520;11.342;2024-03-23T13:14:56;3.20;;;1.90;;
74369;SDS011;71062;44.520;11.342;2024-03-23T13:17:21;5.20;;;1.52;;
74369;SDS011;71062;44.520;11.342;2024-03-23T13:19:56;2.75;;;1.10;;
74369;SDS011;71062;44.520;11.342;2024-03-23T13:22:21;5.53;;;1.58;;
74369;SDS011;71062;44.520;11.342;2024-03-23T13:24:47;2.88;;;1.50;;
74369;SDS011;71062;44.520;11.342;2024-03-23T13:27:12;3.67;;;1.90;;
74369;SDS011;71062;44.520;11.342;2024-03-23T13:29:38;3.65;;;1.60;;
74369;SDS011;71062;44.520;11.342;2024-03-23T13:32:05;3.88;;;1.20;;
74369;SDS011;71062;44.520;11.342;2024-03-23T13:34:31;2.75;;;1.30;;
74369;SDS011;71062;44.520;11.342;2024-03-23T13:36:56;1.73;;;1.00;;
74369;SDS011;71062;44.520;11.342;2024-03-23T13:39:25;2.83;;;1.25;;
74369;SDS011;71062;44.520;11.342;2024-03-23T13:41:50;3.72;;;1.70;;
74369;SDS011;71062;44.520;11.342;2024-03-23T13:44:16;2.80;;;1.30;;
74369;SDS011;71062;44.520;11.342;2024-03-23T13:46:42;3.08;;;1.38;;
74369;SDS011;71062;44.520;11.342;2024-03-23T13:49:33;2.03;;;1.13;;
74369;SDS011;71062;44.520;11.342;2024-03-23T13:51:58;3.30;;;0.90;;
74369;SDS011;71062;44.520;11.342;2024-03-23T13:54:24;3.00;;;1.50;;
74369;SDS011;71062;44.520;11.342;2024-03-23T13:56:50;5.05;;;1.40;;
74369;SDS011;71062;44.520;11.342;2024-03-23T13:59:15;4.43;;;1.50;;
74369;SDS011;71062;44.520;11.342;2024-03-23T14:01:41;2.83;;;1.25;;
74369;SDS011;71062;44.520;11.342;2024-03-23T14:04:07;3.42;;;1.40;;
74369;SDS011;71062;44.520;11.342;2024-03-23T14:06:32;2.88;;;1.10;;
74369;SDS011;71062;44.520;11.342;2024-03-23T14:08:58;3.20;;;1.20;;
74369;SDS011;71062;44.520;11.342;2024-03-23T14:11:23;3.33;;;1.30;;
74369;SDS011;71062;44.520;11.342;2024-03-23T14:13:52;4.93;;;1.40;;
74369;SDS011;71062;44.520;11.342;2024-03-23T14:16:18;5.40;;;1.40;;
74369;SDS011;71062;44.520;11.342;2024-03-23T14:18:45;3.00;;;1.05;;
74369;SDS011;71062;44.520;11.342;2024-03-23T14:21:11;2.50;;;1.30;;
74369;SDS011;71062;44.520;11.342;2024-03-23T14:23:37;3.08;;;1.17;;
74369;SDS011;71062;44.520;11.342;2024-03-23T14:26:03;3.92;;;1.80;;
74369;SDS011;71062;44.520;11.342;2024-03-23T14:28:28;4.60;;;1.30;;
74369;SDS011;71062;44.520;11.342;2024-03-23T14:30:55;5.15;;;1.23;;
74369;SDS011;71062;44.520;11.342;2024-03-23T14:33:21;4.60;;;1.20;;
74369;SDS011;71062;44.520;11.342;2024-03-23T14:35:55;5.85;;;1.33;;
74369;SDS011;71062;44.520;11.342;2024-03-23T14:38:22;3.50;;;1.17;;
74369;SDS011;71062;44.520;11.342;2024-03-23T14:40:48;1.58;;;0.85;;
74369;SDS011;71062;44.520;11.342;2024-03-23T14:43:14;3.22;;;1.25;;
74369;SDS011;71062;44.520;11.342;2024-03-23T14:48:27;3.80;;;1.30;;
74369;SDS011;71062;44.520;11.342;2024-03-23T14:50:56;2.90;;;1.00;;
74369;SDS011;71062;44.520;11.342;2024-03-23T14:53:21;3.97;;;1.25;;
74369;SDS011;71062;44.520;11.342;2024-03-23T14:55:47;2.00;;;0.73;;
74369;SDS011;71062;44.520;11.342;2024-03-23T14:58:14;1.65;;;0.73;;
74369;SDS011;71062;44.520;11.342;2024-03-23T15:00:40;4.25;;;1.13;;
74369;SDS011;71062;44.520;11.342;2024-03-23T15:03:05;2.80;;;0.98;;
74369;SDS011;71062;44.520;11.342;2024-03-23T15:05:31;3.28;;;1.25;;
74369;SDS011;71062;44.520;11.342;2024-03-23T15:07:56;6.20;;;1.38;;
74369;SDS011;71062;44.520;11.342;2024-03-23T15:10:23;2.50;;;1.20;;
74369;SDS011;71062;44.520;11.342;2024-03-23T15:12:49;5.25;;;1.25;;
74369;SDS011;71062;44.520;11.342;2024-03-23T15:15:15;4.63;;;0.88;;
74369;SDS011;71062;44.520;11.342;2024-03-23T15:17:40;5.82;;;1.30;;
74369;SDS011;71062;44.520;11.342;2024-03-23T15:20:10;2.65;;;1.02;;
74369;SDS011;71062;44.520;11.342;2024-03-23T15:22:37;2.25;;;1.13;;
74369;SDS011;71062;44.520;11.342;2024-03-23T15:25:02;6.13;;;1.55;;
74369;SDS011;71062;44.520;11.342;2024-03-23T15:27:28;5.18;;;1.20;;
74369;SDS011;71062;44.520;11.342;2024-03-23T15:29:53;3.33;;;1.10;;
74369;SDS011;71062;44.520;11.342;2024-03-23T15:32:22;2.88;;;1.15;;
74369;SDS011;71062;44.520;11.342;2024-03-23T15:34:47;5.80;;;1.55;;
74369;SDS011;71062;44.520;11.342;2024-03-23T15:37:12;3.03;;;1.17;;
74369;SDS011;71062;44.520;11.342;2024-03-23T15:39:38;3.25;;;1.20;;
74369;SDS011;71062;44.520;11.342;2024-03-23T15:42:04;3.08;;;1.75;;
74369;SDS011;71062;44.520;11.342;2024-03-23T15:44:30;5.65;;;1.30;;